createdAt,value
2023-02-06T00:00:25.625Z,400.00
2023-02-06T00:01:25.621Z,402.00
2023-02-06T00:02:25.694Z,401.00
2023-02-06T00:03:25.585Z,401.00
2023-02-06T00:04:25.581Z,401.00
2023-02-06T00:05:25.590Z,401.00
2023-02-06T00:06:25.559Z,399.00
2023-02-06T00:07:25.587Z,401.00
2023-02-06T00:08:25.536Z,401.00
2023-02-06T00:09:25.541Z,400.00
2023-02-06T00:10:25.522Z,402.00
2023-02-06T00:11:25.514Z,402.00
2023-02-06T00:12:25.493Z,402.00
2023-02-06T00:13:25.487Z,402.00
2023-02-06T00:14:25.479Z,401.00
2023-02-06T00:15:25.472Z,399.00
2023-02-06T00:16:25.473Z,401.00
2023-02-06T00:17:25.450Z,401.00
2023-02-06T00:18:30.747Z,402.00
2023-02-06T00:19:26.469Z,404.00
2023-02-06T00:20:25.450Z,403.00
2023-02-06T00:21:25.509Z,403.00
2023-02-06T00:22:25.565Z,402.00
2023-02-06T00:23:25.479Z,404.00
2023-02-06T00:24:25.424Z,406.00
2023-02-06T00:25:25.442Z,407.00
2023-02-06T00:26:25.443Z,405.00
2023-02-06T00:27:25.440Z,405.00
2023-02-06T00:28:25.428Z,406.00
2023-02-06T00:29:25.430Z,403.00
2023-02-06T00:30:25.443Z,403.00
2023-02-06T00:31:25.481Z,400.00
2023-02-06T00:32:25.423Z,400.00
2023-02-06T00:33:25.410Z,400.00
2023-02-06T00:34:25.404Z,399.00
2023-02-06T00:35:25.396Z,400.00
2023-02-06T00:36:25.407Z,399.00
2023-02-06T00:37:25.395Z,400.00
2023-02-06T00:38:25.389Z,400.00
2023-02-06T00:39:25.385Z,402.00
2023-02-06T00:40:25.381Z,400.00
2023-02-06T00:41:25.383Z,397.00
2023-02-06T00:42:25.372Z,396.00
2023-02-06T00:43:25.361Z,397.00
2023-02-06T00:44:25.355Z,396.00
2023-02-06T00:45:25.351Z,397.00
2023-02-06T00:46:25.401Z,398.00
2023-02-06T00:47:25.344Z,402.00
2023-02-06T00:48:25.354Z,403.00
2023-02-06T00:49:25.326Z,401.00
2023-02-06T00:50:25.327Z,402.00
2023-02-06T00:51:25.337Z,400.00
2023-02-06T00:52:25.326Z,401.00
2023-02-06T00:53:25.319Z,401.00
2023-02-06T00:54:25.333Z,403.00
2023-02-06T00:55:25.314Z,406.00
2023-02-06T00:56:25.312Z,405.00
2023-02-06T00:57:25.308Z,405.00
2023-02-06T00:58:25.299Z,404.00
2023-02-06T00:59:25.296Z,402.00
2023-02-06T01:00:25.298Z,404.00
2023-02-06T01:01:25.314Z,401.00
2023-02-06T01:02:25.289Z,403.00
2023-02-06T01:03:25.275Z,402.00
2023-02-06T01:04:25.265Z,402.00
2023-02-06T01:05:25.248Z,402.00
2023-02-06T01:06:25.249Z,403.00
2023-02-06T01:07:25.247Z,407.00
2023-02-06T01:08:25.216Z,408.00
2023-02-06T01:09:25.218Z,408.00
2023-02-06T01:10:25.209Z,409.00
2023-02-06T01:11:25.228Z,407.00
2023-02-06T01:12:25.194Z,407.00
2023-02-06T01:13:25.175Z,407.00
2023-02-06T01:14:25.189Z,405.00
2023-02-06T01:15:25.162Z,405.00
2023-02-06T01:16:25.194Z,406.00
2023-02-06T01:17:25.134Z,406.00
2023-02-06T01:18:25.131Z,406.00
2023-02-06T01:19:25.131Z,407.00
2023-02-06T01:20:25.122Z,406.00
2023-02-06T01:21:25.124Z,407.00
2023-02-06T01:22:25.121Z,407.00
2023-02-06T01:23:25.104Z,406.00
2023-02-06T01:24:25.104Z,403.00
2023-02-06T01:25:25.103Z,405.00
2023-02-06T01:26:25.108Z,404.00
2023-02-06T01:27:25.108Z,405.00
2023-02-06T01:28:25.111Z,406.00
2023-02-06T01:29:25.112Z,408.00
2023-02-06T01:30:25.166Z,407.00
2023-02-06T01:31:25.193Z,408.00
2023-02-06T01:32:25.122Z,409.00
2023-02-06T01:33:25.112Z,409.00
2023-02-06T01:34:25.111Z,408.00
2023-02-06T01:35:25.092Z,409.00
2023-02-06T01:36:25.090Z,409.00
2023-02-06T01:37:25.085Z,410.00
2023-02-06T01:38:25.066Z,407.00
2023-02-06T01:39:25.174Z,408.00
2023-02-06T01:40:25.056Z,408.00
2023-02-06T01:41:25.080Z,406.00
2023-02-06T01:42:25.057Z,402.00
2023-02-06T01:43:25.019Z,399.00
2023-02-06T01:44:25.000Z,399.00
2023-02-06T01:45:24.990Z,399.00
2023-02-06T01:46:25.014Z,400.00
2023-02-06T01:47:24.991Z,401.00
2023-02-06T01:48:24.971Z,401.00
2023-02-06T01:49:24.971Z,402.00
2023-02-06T01:50:24.939Z,404.00
2023-02-06T01:51:24.938Z,404.00
2023-02-06T01:52:24.931Z,406.00
2023-02-06T01:53:24.930Z,408.00
2023-02-06T01:54:24.933Z,408.00
2023-02-06T01:55:24.920Z,408.00
2023-02-06T01:56:24.893Z,410.00
2023-02-06T01:57:24.884Z,410.00
2023-02-06T01:58:24.875Z,407.00
2023-02-06T01:59:24.868Z,408.00
2023-02-06T02:00:24.856Z,406.00
2023-02-06T02:01:24.840Z,406.00
2023-02-06T02:02:24.851Z,406.00
2023-02-06T02:03:24.833Z,406.00
2023-02-06T02:04:24.824Z,407.00
2023-02-06T02:05:24.834Z,406.00
2023-02-06T02:06:24.816Z,405.00
2023-02-06T02:07:24.833Z,406.00
2023-02-06T02:08:24.813Z,408.00
2023-02-06T02:09:24.809Z,407.00
2023-02-06T02:10:24.804Z,404.00
2023-02-06T02:11:24.857Z,400.00
2023-02-06T02:12:24.805Z,403.00
2023-02-06T02:13:24.825Z,403.00
2023-02-06T02:14:24.793Z,403.00
2023-02-06T02:15:24.783Z,404.00
2023-02-06T02:16:24.795Z,404.00
2023-02-06T02:17:24.763Z,402.00
2023-02-06T02:18:24.753Z,401.00
2023-02-06T02:19:24.753Z,401.00
2023-02-06T02:20:24.759Z,402.00
2023-02-06T02:21:24.743Z,403.00
2023-02-06T02:22:24.741Z,404.00
2023-02-06T02:23:24.745Z,404.00
2023-02-06T02:24:24.729Z,405.00
2023-02-06T02:25:24.729Z,406.00
2023-02-06T02:26:24.717Z,405.00
2023-02-06T02:27:24.723Z,404.00
2023-02-06T02:28:24.723Z,401.00
2023-02-06T02:29:24.720Z,402.00
2023-02-06T02:30:24.794Z,402.00
2023-02-06T02:31:24.737Z,402.00
2023-02-06T02:32:24.719Z,402.00
2023-02-06T02:33:24.738Z,405.00
2023-02-06T02:34:24.710Z,407.00
2023-02-06T02:35:24.712Z,406.00
2023-02-06T02:36:24.693Z,406.00
2023-02-06T02:37:24.683Z,407.00
2023-02-06T02:38:24.705Z,408.00
2023-02-06T02:39:24.696Z,406.00
2023-02-06T02:40:24.685Z,407.00
2023-02-06T02:41:24.677Z,406.00
2023-02-06T02:42:24.671Z,406.00
2023-02-06T02:43:24.679Z,405.00
2023-02-06T02:44:24.673Z,402.00
2023-02-06T02:45:24.693Z,402.00
2023-02-06T02:46:24.642Z,401.00
2023-02-06T02:47:24.636Z,400.00
2023-02-06T02:48:24.646Z,399.00
2023-02-06T02:49:24.618Z,400.00
2023-02-06T02:50:24.597Z,399.00
2023-02-06T02:51:24.588Z,401.00
2023-02-06T02:52:24.574Z,401.00
2023-02-06T02:53:24.567Z,401.00
2023-02-06T02:54:24.544Z,404.00
2023-02-06T02:55:24.526Z,406.00
2023-02-06T02:56:24.510Z,408.00
2023-02-06T02:57:24.492Z,408.00
2023-02-06T02:58:24.558Z,406.00
2023-02-06T02:59:24.469Z,405.00
2023-02-06T03:00:24.451Z,409.00
2023-02-06T03:01:24.429Z,409.00
2023-02-06T03:02:24.465Z,408.00
2023-02-06T03:03:24.422Z,409.00
2023-02-06T03:04:24.398Z,409.00
2023-02-06T03:05:24.414Z,409.00
2023-02-06T03:06:24.391Z,408.00
2023-02-06T03:07:24.370Z,408.00
2023-02-06T03:08:24.359Z,411.00
2023-02-06T03:09:24.341Z,412.00
2023-02-06T03:10:24.326Z,413.00
2023-02-06T03:11:24.334Z,411.00
2023-02-06T03:12:24.325Z,411.00
2023-02-06T03:13:24.336Z,408.00
2023-02-06T03:14:24.390Z,411.00
2023-02-06T03:15:24.321Z,412.00
2023-02-06T03:16:24.345Z,409.00
2023-02-06T03:17:24.275Z,410.00
2023-02-06T03:18:24.268Z,410.00
2023-02-06T03:19:24.243Z,411.00
2023-02-06T03:20:24.240Z,411.00
2023-02-06T03:21:24.223Z,410.00
2023-02-06T03:22:24.217Z,411.00
2023-02-06T03:23:24.210Z,412.00
2023-02-06T03:24:24.195Z,410.00
2023-02-06T03:25:24.179Z,410.00
2023-02-06T03:26:24.180Z,413.00
2023-02-06T03:27:24.163Z,412.00
2023-02-06T03:28:24.148Z,411.00
2023-02-06T03:29:24.129Z,409.00
2023-02-06T03:30:24.155Z,410.00
2023-02-06T03:31:24.131Z,409.00
2023-02-06T03:32:24.125Z,409.00
2023-02-06T03:33:24.086Z,411.00
2023-02-06T03:34:24.084Z,410.00
2023-02-06T03:35:24.059Z,412.00
2023-02-06T03:36:24.057Z,411.00
2023-02-06T03:37:24.061Z,412.00
2023-02-06T03:38:24.066Z,411.00
2023-02-06T03:39:24.052Z,411.00
2023-02-06T03:40:24.038Z,411.00
2023-02-06T03:41:24.044Z,415.00
2023-02-06T03:42:24.039Z,413.00
2023-02-06T03:43:24.040Z,411.00
2023-02-06T03:44:24.050Z,412.00
2023-02-06T03:45:24.058Z,409.00
2023-02-06T03:46:24.040Z,410.00
2023-02-06T03:47:24.048Z,408.00
2023-02-06T03:48:24.021Z,409.00
2023-02-06T03:49:24.024Z,408.00
2023-02-06T03:50:24.013Z,412.00
2023-02-06T03:51:24.004Z,412.00
2023-02-06T03:52:23.992Z,410.00
2023-02-06T03:53:23.989Z,411.00
2023-02-06T03:54:23.991Z,409.00
2023-02-06T03:55:23.982Z,409.00
2023-02-06T03:56:23.954Z,408.00
2023-02-06T03:57:23.969Z,409.00
2023-02-06T03:58:24.707Z,408.00
2023-02-06T03:59:23.939Z,411.00
2023-02-06T04:00:23.942Z,411.00
2023-02-06T04:01:24.023Z,409.00
2023-02-06T04:02:23.920Z,405.00
2023-02-06T04:03:23.917Z,405.00
2023-02-06T04:04:23.902Z,405.00
2023-02-06T04:05:23.884Z,403.00
2023-02-06T04:06:23.877Z,404.00
2023-02-06T04:07:23.899Z,404.00
2023-02-06T04:08:23.856Z,405.00
2023-02-06T04:09:23.855Z,404.00
2023-02-06T04:10:26.109Z,405.00
2023-02-06T04:11:23.869Z,407.00
2023-02-06T04:12:23.866Z,409.00
2023-02-06T04:13:23.862Z,407.00
2023-02-06T04:14:23.871Z,408.00
2023-02-06T04:15:23.843Z,406.00
2023-02-06T04:16:23.838Z,403.00
2023-02-06T04:17:40.522Z,404.00
2023-02-06T04:18:24.826Z,408.00
2023-02-06T04:19:23.814Z,407.00
2023-02-06T04:20:23.815Z,408.00
2023-02-06T04:21:23.821Z,409.00
2023-02-06T04:22:23.807Z,410.00
2023-02-06T04:23:23.801Z,409.00
2023-02-06T04:24:23.803Z,406.00
2023-02-06T04:25:23.797Z,406.00
2023-02-06T04:26:23.781Z,406.00
2023-02-06T04:27:23.773Z,403.00
2023-02-06T04:28:23.772Z,402.00
2023-02-06T04:29:23.776Z,403.00
2023-02-06T04:30:23.826Z,404.00
2023-02-06T04:31:23.819Z,404.00
2023-02-06T04:32:23.751Z,408.00
2023-02-06T04:33:23.754Z,408.00
2023-02-06T04:34:23.731Z,407.00
2023-02-06T04:35:23.721Z,406.00
2023-02-06T04:36:24.691Z,404.00
2023-02-06T04:37:23.709Z,403.00
2023-02-06T04:38:23.687Z,403.00
2023-02-06T04:39:23.694Z,402.00
2023-02-06T04:40:23.667Z,404.00
2023-02-06T04:41:23.666Z,403.00
2023-02-06T04:42:23.642Z,400.00
2023-02-06T04:43:23.638Z,400.00
2023-02-06T04:44:23.629Z,401.00
2023-02-06T04:45:44.618Z,402.00
2023-02-06T04:46:23.662Z,399.00
2023-02-06T04:47:23.611Z,398.00
2023-02-06T04:48:23.603Z,397.00
2023-02-06T04:49:23.577Z,399.00
2023-02-06T04:50:23.578Z,400.00
2023-02-06T04:51:23.582Z,402.00
2023-02-06T04:52:23.571Z,403.00
2023-02-06T04:53:23.544Z,404.00
2023-02-06T04:54:23.558Z,403.00
2023-02-06T04:55:23.549Z,400.00
2023-02-06T04:56:23.529Z,403.00
2023-02-06T04:57:23.513Z,403.00
2023-02-06T04:58:23.518Z,400.00
2023-02-06T04:59:23.657Z,400.00
2023-02-06T05:00:23.509Z,400.00
2023-02-06T05:01:23.522Z,400.00
2023-02-06T05:02:23.531Z,400.00
2023-02-06T05:03:23.455Z,399.00
2023-02-06T05:04:23.457Z,397.00
2023-02-06T05:05:23.461Z,399.00
2023-02-06T05:06:23.437Z,398.00
2023-02-06T05:07:23.456Z,397.00
2023-02-06T05:08:23.427Z,396.00
2023-02-06T05:09:23.434Z,397.00
2023-02-06T05:10:23.430Z,397.00
2023-02-06T05:11:23.423Z,398.00
2023-02-06T05:12:23.432Z,396.00
2023-02-06T05:13:23.428Z,394.00
2023-02-06T05:14:23.434Z,395.00
2023-02-06T05:15:23.434Z,396.00
2023-02-06T05:16:23.432Z,397.00
2023-02-06T05:17:23.419Z,394.00
2023-02-06T05:18:23.408Z,396.00
2023-02-06T05:19:23.398Z,396.00
2023-02-06T05:20:23.399Z,398.00
2023-02-06T05:21:23.385Z,398.00
2023-02-06T05:22:23.379Z,398.00
2023-02-06T05:23:23.384Z,398.00
2023-02-06T05:24:23.379Z,401.00
2023-02-06T05:25:23.386Z,401.00
2023-02-06T05:26:23.360Z,402.00
2023-02-06T05:27:23.353Z,399.00
2023-02-06T05:28:23.358Z,399.00
2023-02-06T05:29:23.351Z,400.00
2023-02-06T05:30:23.355Z,401.00
2023-02-06T05:31:23.442Z,397.00
2023-02-06T05:32:23.335Z,398.00
2023-02-06T05:33:23.337Z,398.00
2023-02-06T05:34:23.369Z,401.00
2023-02-06T05:35:23.337Z,403.00
2023-02-06T05:36:23.348Z,403.00
2023-02-06T05:37:23.328Z,402.00
2023-02-06T05:38:23.341Z,404.00
2023-02-06T05:39:23.320Z,403.00
2023-02-06T05:40:23.305Z,404.00
2023-02-06T05:41:23.318Z,409.00
2023-02-06T05:42:23.306Z,406.00
2023-02-06T05:43:23.315Z,404.00
2023-02-06T05:44:23.288Z,403.00
2023-02-06T05:45:23.314Z,403.00
2023-02-06T05:46:23.297Z,403.00
2023-02-06T05:47:23.275Z,402.00
2023-02-06T05:48:23.285Z,403.00
2023-02-06T05:49:23.277Z,403.00
2023-02-06T05:50:23.260Z,404.00
2023-02-06T05:51:23.251Z,404.00
2023-02-06T05:52:23.233Z,401.00
2023-02-06T05:53:23.280Z,400.00
2023-02-06T05:54:23.212Z,399.00
2023-02-06T05:55:23.196Z,403.00
2023-02-06T05:56:23.204Z,405.00
2023-02-06T05:57:23.193Z,405.00
2023-02-06T05:58:23.178Z,405.00
2023-02-06T05:59:23.152Z,405.00
2023-02-06T06:00:23.157Z,404.00
2023-02-06T06:01:23.151Z,405.00
2023-02-06T06:02:23.130Z,403.00
2023-02-06T06:03:23.121Z,402.00
2023-02-06T06:04:23.195Z,402.00
2023-02-06T06:05:23.095Z,402.00
2023-02-06T06:06:23.094Z,403.00
2023-02-06T06:07:23.075Z,401.00
2023-02-06T06:08:23.076Z,402.00
2023-02-06T06:09:23.044Z,405.00
2023-02-06T06:10:23.035Z,408.00
2023-02-06T06:11:23.021Z,407.00
2023-02-06T06:12:23.039Z,407.00
2023-02-06T06:13:23.117Z,408.00
2023-02-06T06:14:23.029Z,408.00
2023-02-06T06:15:23.935Z,408.00
2023-02-06T06:16:23.113Z,408.00
2023-02-06T06:17:22.998Z,408.00
2023-02-06T06:18:22.968Z,410.00
2023-02-06T06:19:22.959Z,409.00
2023-02-06T06:20:22.947Z,406.00
2023-02-06T06:21:22.936Z,407.00
2023-02-06T06:22:22.927Z,406.00
2023-02-06T06:23:22.919Z,407.00
2023-02-06T06:24:22.918Z,407.00
2023-02-06T06:25:22.904Z,409.00
2023-02-06T06:26:22.909Z,410.00
2023-02-06T06:27:22.893Z,410.00
2023-02-06T06:28:22.893Z,411.00
2023-02-06T06:29:22.880Z,409.00
2023-02-06T06:30:22.952Z,410.00
2023-02-06T06:31:22.990Z,411.00
2023-02-06T06:32:22.950Z,412.00
2023-02-06T06:33:22.917Z,412.00
2023-02-06T06:34:22.852Z,413.00
2023-02-06T06:35:22.805Z,414.00
2023-02-06T06:36:22.800Z,417.00
2023-02-06T06:37:22.783Z,491.00
2023-02-06T06:38:22.792Z,500.00
2023-02-06T06:39:22.746Z,508.00
2023-02-06T06:40:22.739Z,524.00
2023-02-06T06:41:22.741Z,537.00
2023-02-06T06:42:22.724Z,571.00
2023-02-06T06:43:22.705Z,620.00
2023-02-06T06:44:22.712Z,656.00
2023-02-06T06:45:22.712Z,697.00
2023-02-06T06:46:22.661Z,722.00
2023-02-06T06:47:22.649Z,768.00
2023-02-06T06:48:22.630Z,785.00
2023-02-06T06:49:22.617Z,815.00
2023-02-06T06:50:22.597Z,829.00
2023-02-06T06:51:22.590Z,847.00
2023-02-06T06:52:25.290Z,865.00
2023-02-06T06:53:22.556Z,930.00
2023-02-06T06:54:22.605Z,945.00
2023-02-06T06:55:22.510Z,954.00
2023-02-06T06:56:22.489Z,967.00
2023-02-06T06:57:22.512Z,973.00
2023-02-06T06:58:22.458Z,981.00
2023-02-06T06:59:22.431Z,993.00
2023-02-06T07:00:22.410Z,1004.00
2023-02-06T07:01:22.437Z,1012.00
2023-02-06T07:02:22.392Z,1024.00
2023-02-06T07:03:22.362Z,1046.00
2023-02-06T07:04:22.310Z,1056.00
2023-02-06T07:05:22.312Z,1086.00
2023-02-06T07:06:22.267Z,1091.00
2023-02-06T07:07:22.313Z,1119.00
2023-02-06T07:08:22.259Z,1147.00
2023-02-06T07:09:22.212Z,1145.00
2023-02-06T07:10:22.200Z,1162.00
2023-02-06T07:11:22.182Z,1180.00
2023-02-06T07:12:22.182Z,1195.00
2023-02-06T07:13:22.141Z,1211.00
2023-02-06T07:14:22.126Z,1221.00
2023-02-06T07:15:22.136Z,1226.00
2023-02-06T07:16:22.066Z,1251.00
2023-02-06T07:17:22.053Z,1288.00
2023-02-06T07:18:22.040Z,1307.00
2023-02-06T07:19:21.985Z,1315.00
2023-02-06T07:20:21.955Z,1320.00
2023-02-06T07:21:21.936Z,1325.00
2023-02-06T07:22:21.938Z,1343.00
2023-02-06T07:23:21.921Z,1389.00
2023-02-06T07:24:21.906Z,1396.00
2023-02-06T07:25:21.852Z,1408.00
2023-02-06T07:26:21.825Z,1408.00
2023-02-06T07:27:21.796Z,1414.00
2023-02-06T07:28:21.822Z,1417.00
2023-02-06T07:29:21.737Z,1431.00
2023-02-06T07:30:21.780Z,1445.00
2023-02-06T07:31:21.793Z,1456.00
2023-02-06T07:32:21.710Z,1479.00
2023-02-06T07:33:21.650Z,1488.00
2023-02-06T07:34:21.655Z,1497.00
2023-02-06T07:35:21.616Z,1505.00
2023-02-06T07:36:21.587Z,1515.00
2023-02-06T07:37:21.548Z,1520.00
2023-02-06T07:38:21.549Z,1528.00
2023-02-06T07:39:21.511Z,1537.00
2023-02-06T07:40:21.519Z,1554.00
2023-02-06T07:41:21.474Z,1567.00
2023-02-06T07:42:21.443Z,1615.00
2023-02-06T07:43:21.481Z,1621.00
2023-02-06T07:44:21.412Z,1613.00
2023-02-06T07:45:21.398Z,1604.00
2023-02-06T07:46:21.447Z,1600.00
2023-02-06T07:47:21.319Z,1366.00
2023-02-06T07:48:21.320Z,1091.00
2023-02-06T07:49:21.264Z,974.00
2023-02-06T07:50:21.242Z,911.00
2023-02-06T07:51:21.220Z,925.00
2023-02-06T07:52:21.217Z,1027.00
2023-02-06T07:53:21.201Z,1079.00
2023-02-06T07:54:21.220Z,943.00
2023-02-06T07:55:21.196Z,845.00
2023-02-06T07:56:21.152Z,805.00
2023-02-06T07:57:21.141Z,867.00
2023-02-06T07:58:21.130Z,807.00
2023-02-06T07:59:21.129Z,785.00
2023-02-06T08:00:21.168Z,825.00
2023-02-06T08:01:21.152Z,774.00
2023-02-06T08:02:21.073Z,752.00
2023-02-06T08:03:21.139Z,682.00
2023-02-06T08:04:21.070Z,666.00
2023-02-06T08:05:21.017Z,629.00
2023-02-06T08:06:23.224Z,623.00
2023-02-06T08:07:21.072Z,600.00
2023-02-06T08:08:20.964Z,592.00
2023-02-06T08:09:20.947Z,583.00
2023-02-06T08:10:20.918Z,578.00
2023-02-06T08:11:20.912Z,576.00
2023-02-06T08:12:20.941Z,577.00
2023-02-06T08:13:20.892Z,571.00
2023-02-06T08:14:20.887Z,555.00
2023-02-06T08:15:20.861Z,552.00
2023-02-06T08:16:20.893Z,554.00
2023-02-06T08:17:20.829Z,551.00
2023-02-06T08:18:20.831Z,549.00
2023-02-06T08:19:20.958Z,548.00
2023-02-06T08:20:20.807Z,548.00
2023-02-06T08:21:20.799Z,550.00
2023-02-06T08:22:21.487Z,549.00
2023-02-06T08:23:20.928Z,548.00
2023-02-06T08:24:20.856Z,543.00
2023-02-06T08:25:20.752Z,542.00
2023-02-06T08:26:20.722Z,540.00
2023-02-06T08:27:20.729Z,542.00
2023-02-06T08:28:20.766Z,545.00
2023-02-06T08:29:20.747Z,537.00
2023-02-06T08:30:20.746Z,534.00
2023-02-06T08:31:20.790Z,532.00
2023-02-06T08:32:20.635Z,535.00
2023-02-06T08:33:20.629Z,537.00
2023-02-06T08:34:20.603Z,530.00
2023-02-06T08:35:20.574Z,532.00
2023-02-06T08:36:20.574Z,532.00
2023-02-06T08:37:20.547Z,536.00
2023-02-06T08:38:20.513Z,546.00
2023-02-06T08:39:20.515Z,566.00
2023-02-06T08:40:20.474Z,579.00
2023-02-06T08:41:20.465Z,589.00
2023-02-06T08:42:20.542Z,611.00
2023-02-06T08:43:20.481Z,630.00
2023-02-06T08:44:20.411Z,644.00
2023-02-06T08:45:20.588Z,678.00
2023-02-06T08:46:20.401Z,669.00
2023-02-06T08:47:20.387Z,636.00
2023-02-06T08:48:20.328Z,652.00
2023-02-06T08:49:20.595Z,654.00
2023-02-06T08:50:20.319Z,720.00
2023-02-06T08:51:20.267Z,748.00
2023-02-06T08:52:20.262Z,775.00
2023-02-06T08:53:20.231Z,779.00
2023-02-06T08:54:20.191Z,838.00
2023-02-06T08:55:20.170Z,863.00
2023-02-06T08:56:21.152Z,880.00
2023-02-06T08:57:20.126Z,905.00
2023-02-06T08:58:20.092Z,921.00
2023-02-06T08:59:20.079Z,943.00
2023-02-06T09:00:20.057Z,959.00
2023-02-06T09:01:20.070Z,963.00
2023-02-06T09:02:20.074Z,947.00
2023-02-06T09:03:19.969Z,945.00
2023-02-06T09:04:19.957Z,943.00
2023-02-06T09:05:19.917Z,942.00
2023-02-06T09:06:19.905Z,942.00
2023-02-06T09:07:19.977Z,938.00
2023-02-06T09:08:19.843Z,937.00
2023-02-06T09:09:19.809Z,942.00
2023-02-06T09:10:27.517Z,948.00
2023-02-06T09:11:20.753Z,990.00
2023-02-06T09:12:19.736Z,1003.00
2023-02-06T09:13:19.715Z,1014.00
2023-02-06T09:14:19.675Z,1019.00
2023-02-06T09:15:19.645Z,1028.00
2023-02-06T09:16:19.665Z,1038.00
2023-02-06T09:17:19.600Z,1045.00
2023-02-06T09:18:19.577Z,1062.00
2023-02-06T09:19:19.581Z,1103.00
2023-02-06T09:20:19.516Z,1109.00
2023-02-06T09:21:19.593Z,1117.00
2023-02-06T09:22:19.447Z,1131.00
2023-02-06T09:23:19.489Z,1158.00
2023-02-06T09:24:19.442Z,1171.00
2023-02-06T09:25:19.419Z,1187.00
2023-02-06T09:26:19.350Z,1197.00
2023-02-06T09:27:19.323Z,1236.00
2023-02-06T09:28:19.332Z,1257.00
2023-02-06T09:29:19.279Z,1299.00
2023-02-06T09:30:19.258Z,1239.00
2023-02-06T09:31:19.265Z,1178.00
2023-02-06T09:32:19.186Z,868.00
2023-02-06T09:33:19.170Z,748.00
2023-02-06T09:34:19.154Z,752.00
2023-02-06T09:35:19.112Z,765.00
2023-02-06T09:36:19.084Z,763.00
2023-02-06T09:37:19.061Z,671.00
2023-02-06T09:38:19.029Z,689.00
2023-02-06T09:39:19.028Z,707.00
2023-02-06T09:40:19.005Z,719.00
2023-02-06T09:41:18.992Z,796.00
2023-02-06T09:42:19.011Z,790.00
2023-02-06T09:43:18.989Z,792.00
2023-02-06T09:44:18.934Z,796.00
2023-02-06T09:45:18.920Z,811.00
2023-02-06T09:46:19.020Z,860.00
2023-02-06T09:47:18.861Z,867.00
2023-02-06T09:48:18.844Z,871.00
2023-02-06T09:49:18.825Z,884.00
2023-02-06T09:50:18.821Z,897.00
2023-02-06T09:51:18.788Z,912.00
2023-02-06T09:52:18.768Z,934.00
2023-02-06T09:53:18.740Z,946.00
2023-02-06T09:54:18.728Z,952.00
2023-02-06T09:55:18.731Z,953.00
2023-02-06T09:56:18.739Z,957.00
2023-02-06T09:57:18.682Z,957.00
2023-02-06T09:58:18.669Z,957.00
2023-02-06T09:59:18.650Z,956.00
2023-02-06T10:00:18.719Z,953.00
2023-02-06T10:01:18.880Z,954.00
2023-02-06T10:02:18.618Z,951.00
2023-02-06T10:03:18.610Z,953.00
2023-02-06T10:04:18.617Z,956.00
2023-02-06T10:05:18.600Z,955.00
2023-02-06T10:06:18.562Z,959.00
2023-02-06T10:07:18.554Z,959.00
2023-02-06T10:08:18.529Z,961.00
2023-02-06T10:09:18.544Z,960.00
2023-02-06T10:10:18.509Z,959.00
2023-02-06T10:11:18.679Z,958.00
2023-02-06T10:12:18.455Z,954.00
2023-02-06T10:13:18.436Z,951.00
2023-02-06T10:14:18.439Z,946.00
2023-02-06T10:15:18.412Z,946.00
2023-02-06T10:16:18.616Z,943.00
2023-02-06T10:17:18.411Z,944.00
2023-02-06T10:18:18.358Z,941.00
2023-02-06T10:19:18.364Z,939.00
2023-02-06T10:20:18.462Z,936.00
2023-02-06T10:21:18.329Z,933.00
2023-02-06T10:22:18.331Z,930.00
2023-02-06T10:23:18.308Z,928.00
2023-02-06T10:24:18.348Z,925.00
2023-02-06T10:25:18.268Z,923.00
2023-02-06T10:26:18.323Z,922.00
2023-02-06T10:27:18.302Z,917.00
2023-02-06T10:28:18.217Z,912.00
2023-02-06T10:29:18.210Z,911.00
2023-02-06T10:30:18.325Z,907.00
2023-02-06T10:31:18.246Z,905.00
2023-02-06T10:32:18.169Z,908.00
2023-02-06T10:33:25.324Z,906.00
2023-02-06T10:34:19.154Z,902.00
2023-02-06T10:35:18.122Z,900.00
2023-02-06T10:36:18.092Z,895.00
2023-02-06T10:37:18.074Z,875.00
2023-02-06T10:38:18.061Z,863.00
2023-02-06T10:39:18.034Z,851.00
2023-02-06T10:40:18.028Z,845.00
2023-02-06T10:41:17.994Z,858.00
2023-02-06T10:42:17.982Z,859.00
2023-02-06T10:43:17.948Z,864.00
2023-02-06T10:44:17.945Z,889.00
2023-02-06T10:45:22.080Z,991.00
2023-02-06T10:46:17.916Z,1000.00
2023-02-06T10:47:17.888Z,1007.00
2023-02-06T10:48:17.834Z,1015.00
2023-02-06T10:49:17.888Z,1037.00
2023-02-06T10:50:17.820Z,1075.00
2023-02-06T10:51:17.844Z,1104.00
2023-02-06T10:52:17.869Z,1108.00
2023-02-06T10:53:17.737Z,1110.00
2023-02-06T10:54:17.720Z,1113.00
2023-02-06T10:55:17.717Z,1115.00
2023-02-06T10:56:17.676Z,1117.00
2023-02-06T10:57:17.677Z,1122.00
2023-02-06T10:58:17.648Z,1134.00
2023-02-06T10:59:17.701Z,1165.00
2023-02-06T11:00:17.587Z,1177.00
2023-02-06T11:01:26.044Z,1184.00
2023-02-06T11:02:18.647Z,1193.00
2023-02-06T11:03:17.520Z,1206.00
2023-02-06T11:04:17.539Z,1208.00
2023-02-06T11:05:17.493Z,1213.00
2023-02-06T11:06:17.488Z,1217.00
2023-02-06T11:07:17.454Z,1241.00
2023-02-06T11:08:17.457Z,1242.00
2023-02-06T11:09:17.436Z,1243.00
2023-02-06T11:10:17.391Z,1253.00
2023-02-06T11:11:17.364Z,1258.00
2023-02-06T11:12:17.330Z,1267.00
2023-02-06T11:13:17.294Z,1278.00
2023-02-06T11:14:17.293Z,1291.00
2023-02-06T11:15:17.262Z,1301.00
2023-02-06T11:16:17.254Z,1321.00
2023-02-06T11:17:17.220Z,1323.00
2023-02-06T11:18:17.202Z,1329.00
2023-02-06T11:19:17.173Z,1337.00
2023-02-06T11:20:17.142Z,1338.00
2023-02-06T11:21:17.136Z,1336.00
2023-02-06T11:22:17.105Z,1332.00
2023-02-06T11:23:17.081Z,1335.00
2023-02-06T11:24:17.080Z,1337.00
2023-02-06T11:25:17.013Z,1343.00
2023-02-06T11:26:17.003Z,1347.00
2023-02-06T11:27:16.980Z,1348.00
2023-02-06T11:28:16.968Z,1363.00
2023-02-06T11:29:16.918Z,1366.00
2023-02-06T11:30:16.921Z,1392.00
2023-02-06T11:31:16.873Z,1426.00
2023-02-06T11:32:16.848Z,1431.00
2023-02-06T11:33:16.818Z,1432.00
2023-02-06T11:34:16.782Z,1433.00
2023-02-06T11:35:16.748Z,1434.00
2023-02-06T11:36:16.750Z,1435.00
2023-02-06T11:37:16.684Z,1434.00
2023-02-06T11:38:16.656Z,1449.00
2023-02-06T11:39:16.645Z,1491.00
2023-02-06T11:40:16.650Z,1510.00
2023-02-06T11:41:16.553Z,1501.00
2023-02-06T11:42:16.523Z,1499.00
2023-02-06T11:43:16.502Z,1502.00
2023-02-06T11:44:16.456Z,1503.00
2023-02-06T11:45:16.489Z,1484.00
2023-02-06T11:46:16.411Z,1443.00
2023-02-06T11:47:16.360Z,1382.00
2023-02-06T11:48:16.325Z,1355.00
2023-02-06T11:49:16.294Z,1222.00
2023-02-06T11:50:16.259Z,1205.00
2023-02-06T11:51:16.239Z,1195.00
2023-02-06T11:52:16.231Z,1101.00
2023-02-06T11:53:16.194Z,1080.00
2023-02-06T11:54:16.171Z,1105.00
2023-02-06T11:55:16.192Z,1102.00
2023-02-06T11:56:16.129Z,1092.00
2023-02-06T11:57:16.101Z,1087.00
2023-02-06T11:58:16.073Z,1069.00
2023-02-06T11:59:16.041Z,1062.00
2023-02-06T12:00:16.018Z,1059.00
2023-02-06T12:01:16.013Z,1056.00
2023-02-06T12:02:16.009Z,1052.00
2023-02-06T12:03:16.099Z,1022.00
2023-02-06T12:04:16.045Z,1040.00
2023-02-06T12:05:15.938Z,1036.00
2023-02-06T12:06:15.910Z,1034.00
2023-02-06T12:07:15.842Z,1028.00
2023-02-06T12:08:15.811Z,913.00
2023-02-06T12:09:15.786Z,947.00
2023-02-06T12:10:15.780Z,941.00
2023-02-06T12:11:15.733Z,925.00
2023-02-06T12:12:15.712Z,946.00
2023-02-06T12:13:15.698Z,951.00
2023-02-06T12:14:15.676Z,951.00
2023-02-06T12:15:39.967Z,949.00
2023-02-06T12:17:15.629Z,943.00
2023-02-06T12:18:15.594Z,939.00
2023-02-06T12:19:15.574Z,936.00
2023-02-06T12:20:15.540Z,936.00
2023-02-06T12:21:15.533Z,932.00
2023-02-06T12:22:15.558Z,930.00
2023-02-06T12:23:15.463Z,928.00
2023-02-06T12:24:15.442Z,922.00